createdAt,value
2023-02-17T00:02:00.844Z,99110.16
2023-02-17T00:04:48.185Z,99100.78
2023-02-17T00:07:36.227Z,99101.63
2023-02-17T00:10:23.660Z,99091.94
2023-02-17T00:13:12.226Z,99093.66
2023-02-17T00:15:59.563Z,99095.50
2023-02-17T00:18:47.594Z,99097.19
2023-02-17T00:21:35.042Z,99101.53
2023-02-17T00:24:22.792Z,99090.06
2023-02-17T00:27:11.370Z,99094.28
2023-02-17T00:30:00.322Z,99094.75
2023-02-17T00:32:48.245Z,99089.53
2023-02-17T00:35:40.537Z,99097.59
2023-02-17T00:38:29.825Z,99108.63
2023-02-17T00:41:17.854Z,99098.84
2023-02-17T00:44:05.879Z,99105.28
2023-02-17T00:46:55.076Z,99094.22
2023-02-17T00:49:42.670Z,99085.25
2023-02-17T00:52:30.125Z,99087.47
2023-02-17T00:55:17.670Z,99086.09
2023-02-17T00:58:05.714Z,99086.41
2023-02-17T01:00:53.057Z,99080.81
2023-02-17T01:03:42.584Z,99087.47
2023-02-17T01:06:33.933Z,99090.53
2023-02-17T01:09:21.566Z,99093.56
2023-02-17T01:12:09.070Z,99087.75
2023-02-17T01:14:56.588Z,99090.81
2023-02-17T01:17:43.907Z,99087.44
2023-02-17T01:20:35.919Z,99085.97
2023-02-17T01:23:23.593Z,99077.97
2023-02-17T01:26:15.674Z,99079.84
2023-02-17T01:29:05.180Z,99067.63
2023-02-17T01:31:53.501Z,99068.66
2023-02-17T01:34:40.870Z,99066.97
2023-02-17T01:37:29.772Z,99056.63
2023-02-17T01:40:21.437Z,99063.59
2023-02-17T01:43:17.307Z,99057.38
2023-02-17T01:46:07.386Z,99054.00
2023-02-17T01:48:55.364Z,99047.06
2023-02-17T01:51:43.651Z,99047.78
2023-02-17T01:54:41.896Z,99037.34
2023-02-17T01:57:36.471Z,99036.41
2023-02-17T02:00:27.362Z,99038.94
2023-02-17T02:03:16.486Z,99032.63
2023-02-17T02:06:12.460Z,99035.16
2023-02-17T02:09:06.951Z,99036.22
2023-02-17T02:11:56.457Z,99029.06
2023-02-17T02:14:44.119Z,99022.06
2023-02-17T02:17:46.821Z,99019.34
2023-02-17T02:21:04.758Z,99012.38
2023-02-17T02:24:18.760Z,99017.03
2023-02-17T02:27:57.302Z,99008.19
2023-02-17T02:31:12.007Z,99006.50
2023-02-17T02:34:08.439Z,99007.63
2023-02-17T02:37:05.550Z,99006.91
2023-02-17T02:39:56.267Z,98999.72
2023-02-17T02:42:45.617Z,98999.84
2023-02-17T02:45:34.863Z,98998.69
2023-02-17T02:48:22.588Z,99000.16
2023-02-17T02:51:42.784Z,98998.47
2023-02-17T02:54:48.428Z,98999.31
2023-02-17T02:57:50.057Z,99015.97
2023-02-17T03:00:54.077Z,99010.59
2023-02-17T03:03:49.790Z,99008.91
2023-02-17T03:06:47.640Z,98999.31
2023-02-17T03:09:36.097Z,98995.72
2023-02-17T03:12:27.881Z,98990.69
2023-02-17T03:15:23.601Z,98990.25
2023-02-17T03:18:11.383Z,98991.31
2023-02-17T03:21:08.028Z,98985.44
2023-02-17T03:23:56.862Z,98988.97
2023-02-17T03:26:44.397Z,98993.19
2023-02-17T03:29:31.967Z,98992.16
2023-02-17T03:32:20.189Z,98987.72
2023-02-17T03:35:07.815Z,98988.47
2023-02-17T03:37:55.142Z,98999.00
2023-02-17T03:40:43.935Z,98997.94
2023-02-17T03:43:31.224Z,98990.88
2023-02-17T03:46:19.789Z,98993.22
2023-02-17T03:49:07.615Z,98996.16
2023-02-17T03:51:55.146Z,98985.41
2023-02-17T03:54:42.628Z,98984.56
2023-02-17T03:57:31.897Z,98983.31
2023-02-17T04:00:20.220Z,98989.59
2023-02-17T04:03:07.645Z,98999.94
2023-02-17T04:05:55.461Z,98990.34
2023-02-17T04:08:43.321Z,98986.06
2023-02-17T04:11:31.168Z,98974.34
2023-02-17T04:14:20.130Z,98974.84
2023-02-17T04:17:07.802Z,98981.81
2023-02-17T04:19:55.294Z,98987.09
2023-02-17T04:22:42.714Z,98978.22
2023-02-17T04:25:30.034Z,98978.31
2023-02-17T04:28:19.193Z,98980.31
2023-02-17T04:31:09.177Z,98979.19
2023-02-17T04:33:56.763Z,98977.97
2023-02-17T04:36:44.429Z,98977.31
2023-02-17T04:39:32.015Z,98971.69
2023-02-17T04:42:19.477Z,98969.00
2023-02-17T04:45:08.358Z,98971.63
2023-02-17T04:47:57.100Z,98961.03
2023-02-17T04:50:44.432Z,98947.25
2023-02-17T04:53:31.888Z,98947.97
2023-02-17T04:56:19.506Z,98950.94
2023-02-17T04:59:06.828Z,98946.97
2023-02-17T05:01:54.246Z,98948.97
2023-02-17T05:04:45.668Z,98941.66
2023-02-17T05:07:34.775Z,98944.53
2023-02-17T05:10:23.985Z,98950.13
2023-02-17T05:13:12.091Z,98947.72
2023-02-17T05:15:59.900Z,98945.91
2023-02-17T05:18:47.669Z,98949.50
2023-02-17T05:21:36.474Z,98942.66
2023-02-17T05:24:24.347Z,98947.31
2023-02-17T05:27:12.424Z,98941.13
2023-02-17T05:30:00.320Z,98940.19
2023-02-17T05:32:48.186Z,98934.22
2023-02-17T05:35:36.241Z,98936.91
2023-02-17T05:38:25.034Z,98924.94
2023-02-17T05:41:12.602Z,98933.50
2023-02-17T05:44:00.086Z,98928.03
2023-02-17T05:46:47.686Z,98923.09
2023-02-17T05:49:35.084Z,98922.47
2023-02-17T05:52:22.545Z,98919.22
2023-02-17T05:55:11.524Z,98920.47
2023-02-17T05:57:59.258Z,98928.13
2023-02-17T06:00:47.214Z,98927.53
2023-02-17T06:03:34.817Z,98930.19
2023-02-17T06:06:22.855Z,98934.00
2023-02-17T06:09:10.735Z,98944.97
2023-02-17T06:11:59.886Z,98947.97
2023-02-17T06:14:47.520Z,98948.94
2023-02-17T06:17:35.254Z,98950.28
2023-02-17T06:20:23.180Z,98946.41
2023-02-17T06:23:11.532Z,98942.81
2023-02-17T06:25:59.076Z,98937.28
2023-02-17T06:28:50.569Z,98944.97
2023-02-17T06:31:38.417Z,98938.75
2023-02-17T06:34:29.297Z,98939.34
2023-02-17T06:37:16.828Z,98932.69
2023-02-17T06:40:04.711Z,98939.66
2023-02-17T06:42:52.387Z,98931.97
2023-02-17T06:45:41.308Z,98940.41
2023-02-17T06:48:28.947Z,98938.81
2023-02-17T06:51:16.452Z,98937.34
2023-02-17T06:54:03.845Z,98939.84
2023-02-17T06:56:51.586Z,98943.47
2023-02-17T06:59:38.978Z,98941.19
2023-02-17T07:02:28.572Z,98942.78
2023-02-17T07:05:16.150Z,98941.75
2023-02-17T07:08:04.195Z,98945.88
2023-02-17T07:10:51.780Z,98934.09
2023-02-17T07:13:39.621Z,98942.44
2023-02-17T07:16:27.307Z,98936.34
2023-02-17T07:19:16.487Z,98937.91
2023-02-17T07:22:03.833Z,98930.44
2023-02-17T07:24:51.197Z,98932.47
2023-02-17T07:27:39.293Z,98941.13
2023-02-17T07:30:26.908Z,98938.34
2023-02-17T07:33:14.565Z,98942.91
2023-02-17T07:36:08.305Z,98952.16
2023-02-17T07:38:56.634Z,98951.34
2023-02-17T07:41:44.409Z,98952.06
2023-02-17T07:44:31.843Z,98954.47
2023-02-17T07:47:19.680Z,98947.50
2023-02-17T07:50:09.862Z,98961.66
2023-02-17T07:52:59.069Z,98966.53
2023-02-17T07:55:46.661Z,98970.97
2023-02-17T07:58:35.029Z,98980.94
2023-02-17T08:01:25.059Z,98976.94
2023-02-17T08:04:12.638Z,98982.59
2023-02-17T08:07:00.565Z,98981.00
2023-02-17T08:10:06.836Z,98992.91
2023-02-17T08:13:11.870Z,98986.19
2023-02-17T08:15:59.641Z,98982.19
2023-02-17T08:18:47.124Z,98978.88
2023-02-17T08:21:35.614Z,98986.22
2023-02-17T08:24:24.684Z,98983.81
2023-02-17T08:27:39.617Z,98981.53
2023-02-17T08:30:27.570Z,98987.31
2023-02-17T08:33:17.981Z,98991.25
2023-02-17T08:36:08.736Z,98995.28
2023-02-17T08:38:57.040Z,98996.00
2023-02-17T08:41:45.615Z,98993.34
2023-02-17T08:44:37.410Z,98992.25
2023-02-17T08:47:25.011Z,99002.72
2023-02-17T08:50:17.108Z,99006.19
2023-02-17T08:53:04.793Z,99008.72
2023-02-17T08:55:52.788Z,99002.34
2023-02-17T08:58:40.166Z,99004.63
2023-02-17T09:01:29.181Z,99005.31
2023-02-17T09:04:17.503Z,98999.50
2023-02-17T09:07:05.335Z,98997.94
2023-02-17T09:09:52.793Z,98998.72
2023-02-17T09:12:40.391Z,98991.03
2023-02-17T09:15:27.923Z,99002.09
2023-02-17T09:18:17.466Z,98996.66
2023-02-17T09:21:08.775Z,99006.31
2023-02-17T09:23:56.592Z,98989.28
2023-02-17T09:26:44.091Z,98989.03
2023-02-17T09:29:31.899Z,98985.13
2023-02-17T09:32:19.376Z,98981.53
2023-02-17T09:35:09.432Z,98976.09
2023-02-17T09:37:56.890Z,98978.38
2023-02-17T09:40:49.082Z,98977.50
2023-02-17T09:43:37.181Z,98983.66
2023-02-17T09:46:33.131Z,98982.56
2023-02-17T09:49:27.043Z,98979.25
2023-02-17T09:52:27.194Z,98982.84
2023-02-17T09:55:21.464Z,98979.81
2023-02-17T09:58:17.163Z,98978.88
2023-02-17T10:01:12.285Z,98976.75
2023-02-17T10:04:09.503Z,98972.06
2023-02-17T10:07:07.195Z,98950.97
2023-02-17T10:10:07.086Z,98958.94
2023-02-17T10:12:59.102Z,98950.03
2023-02-17T10:15:53.005Z,98957.16
2023-02-17T10:18:49.819Z,98951.91
2023-02-17T10:21:43.797Z,98956.22
2023-02-17T10:24:31.494Z,98950.13
2023-02-17T10:27:38.724Z,98956.84
2023-02-17T10:30:38.602Z,98944.00
2023-02-17T10:33:36.359Z,98948.50
2023-02-17T10:36:31.912Z,98945.16
2023-02-17T10:39:47.955Z,98950.50
2023-02-17T10:42:40.095Z,98954.03
2023-02-17T10:45:33.301Z,98956.13
2023-02-17T10:48:25.515Z,98958.25
2023-02-17T10:51:18.605Z,98946.34
2023-02-17T10:54:17.476Z,98951.09
2023-02-17T10:57:12.143Z,98938.53
2023-02-17T11:00:00.936Z,98930.69
2023-02-17T11:02:51.631Z,98931.25
2023-02-17T11:05:39.442Z,98929.84
2023-02-17T11:08:36.410Z,98923.97
2023-02-17T11:11:27.790Z,98920.16
2023-02-17T11:14:25.910Z,98916.13
2023-02-17T11:17:24.574Z,98918.47
2023-02-17T11:20:34.206Z,98922.84
2023-02-17T11:23:25.586Z,98916.25
2023-02-17T11:26:24.060Z,98911.63
2023-02-17T11:29:17.623Z,98902.66
2023-02-17T11:32:08.993Z,98899.28
2023-02-17T11:35:05.911Z,98904.59
2023-02-17T11:38:01.709Z,98910.06
2023-02-17T11:41:01.879Z,98914.00
2023-02-17T11:43:55.432Z,98908.53
2023-02-17T11:46:56.187Z,98902.84
2023-02-17T11:50:26.098Z,98904.06
2023-02-17T11:53:43.669Z,98892.19
2023-02-17T11:56:37.126Z,98890.34
2023-02-17T11:59:46.137Z,98899.59
2023-02-17T12:03:21.919Z,98901.84
2023-02-17T12:06:22.010Z,98900.19
2023-02-17T12:09:24.520Z,98900.19
2023-02-17T12:12:22.500Z,98901.00
2023-02-17T12:15:39.262Z,98890.22
2023-02-17T12:18:54.835Z,98885.88
2023-02-17T12:22:08.479Z,98890.91
2023-02-17T12:25:26.751Z,98892.59
2023-02-17T12:28:42.917Z,98883.47
2023-02-17T12:32:03.222Z,98882.66
2023-02-17T12:34:58.982Z,98892.31
2023-02-17T12:37:56.131Z,98889.50
2023-02-17T12:40:51.619Z,98885.03
2023-02-17T12:43:48.054Z,98874.41
2023-02-17T12:46:44.144Z,98873.25
2023-02-17T12:49:38.490Z,98869.47
2023-02-17T12:52:31.901Z,98863.84
2023-02-17T12:55:28.566Z,98871.25
2023-02-17T12:58:22.634Z,98877.56
2023-02-17T13:01:16.904Z,98873.50
2023-02-17T13:04:05.164Z,98875.88
2023-02-17T13:07:11.645Z,98868.44
2023-02-17T13:09:59.518Z,98861.13
2023-02-17T13:13:00.347Z,98869.81
2023-02-17T13:15:48.177Z,98877.50
2023-02-17T13:18:38.914Z,98872.56
2023-02-17T13:21:34.389Z,98877.38
2023-02-17T13:24:35.364Z,98874.28
2023-02-17T13:27:33.680Z,98873.97
2023-02-17T13:30:39.732Z,98869.31
2023-02-17T13:33:32.522Z,98859.38
2023-02-17T13:36:36.381Z,98854.72
2023-02-17T13:39:39.162Z,98851.09
2023-02-17T13:42:49.691Z,98849.81
2023-02-17T13:45:45.645Z,98839.72
2023-02-17T13:48:36.279Z,98845.72
2023-02-17T13:51:28.832Z,98843.63
2023-02-17T13:54:22.353Z,98846.94
2023-02-17T13:57:25.705Z,98844.97
2023-02-17T14:00:24.826Z,98842.16
2023-02-17T14:03:22.819Z,98842.47
2023-02-17T14:06:23.073Z,98844.28
2023-02-17T14:09:22.007Z,98838.97
2023-02-17T14:12:24.481Z,98843.03
2023-02-17T14:15:18.140Z,98849.16
2023-02-17T14:18:16.701Z,98846.34
2023-02-17T14:21:09.742Z,98838.91
2023-02-17T14:23:59.824Z,98837.09
2023-02-17T14:26:50.611Z,98836.69
2023-02-17T14:29:44.567Z,98833.88
2023-02-17T14:32:35.248Z,98830.59
2023-02-17T14:35:25.310Z,98832.00
2023-02-17T14:38:27.655Z,98817.22
2023-02-17T14:41:14.999Z,98816.78
2023-02-17T14:44:02.946Z,98804.97
2023-02-17T14:46:50.260Z,98815.31
2023-02-17T14:49:38.193Z,98810.84
2023-02-17T14:52:27.320Z,98807.56
2023-02-17T14:55:26.824Z,98791.94
2023-02-17T14:58:21.439Z,98791.34
2023-02-17T15:01:11.161Z,98777.94
2023-02-17T15:03:59.058Z,98791.47
2023-02-17T15:06:51.611Z,98792.16
2023-02-17T15:09:41.494Z,98784.53
2023-02-17T15:12:29.158Z,98783.53
2023-02-17T15:15:18.922Z,98792.50
2023-02-17T15:18:06.828Z,98781.03
2023-02-17T15:20:54.631Z,98776.22
2023-02-17T15:23:42.847Z,98785.91
2023-02-17T15:26:32.087Z,98792.00
2023-02-17T15:29:22.348Z,98811.19
2023-02-17T15:32:19.021Z,98819.78
2023-02-17T15:35:18.463Z,98826.28
2023-02-17T15:38:05.841Z,98826.41
2023-02-17T15:40:56.688Z,98823.59
2023-02-17T15:43:48.956Z,98826.88
2023-02-17T15:46:37.006Z,98824.66
2023-02-17T15:49:24.720Z,98814.84
2023-02-17T15:52:14.322Z,98829.50
2023-02-17T15:55:01.686Z,98847.75
2023-02-17T15:57:54.019Z,98846.38
2023-02-17T16:00:45.895Z,98840.66
2023-02-17T16:03:33.626Z,98846.44
2023-02-17T16:06:21.502Z,98843.09
2023-02-17T16:09:10.674Z,98850.09
2023-02-17T16:12:00.968Z,98848.03
2023-02-17T16:14:48.586Z,98854.66
2023-02-17T16:17:37.362Z,98847.38
2023-02-17T16:20:28.028Z,98837.97
2023-02-17T16:23:15.437Z,98838.28
2023-02-17T16:26:03.710Z,98837.31
2023-02-17T16:28:51.450Z,98834.09
2023-02-17T16:31:39.006Z,98833.25
2023-02-17T16:34:32.207Z,98821.94
2023-02-17T16:37:19.997Z,98823.91
2023-02-17T16:40:16.603Z,98828.69
2023-02-17T16:43:05.384Z,98833.19
2023-02-17T16:45:57.716Z,98814.69
2023-02-17T16:48:45.157Z,98837.09
2023-02-17T16:51:33.980Z,98834.44
2023-02-17T16:54:21.650Z,98826.75
2023-02-17T16:57:19.187Z,98839.34
2023-02-17T17:00:09.175Z,98834.03
2023-02-17T17:02:57.903Z,98837.69
2023-02-17T17:05:45.691Z,98851.97
2023-02-17T17:08:35.684Z,98846.94
2023-02-17T17:11:26.080Z,98855.94
2023-02-17T17:14:14.171Z,98845.44
2023-02-17T17:17:03.458Z,98837.59
2023-02-17T17:19:50.905Z,98848.94
2023-02-17T17:22:38.763Z,98836.63
2023-02-17T17:25:29.077Z,98841.53
2023-02-17T17:28:18.885Z,98853.84
2023-02-17T17:31:06.505Z,98859.31
2023-02-17T17:33:55.011Z,98851.47
2023-02-17T17:36:45.980Z,98858.81
2023-02-17T17:39:33.671Z,98852.63
2023-02-17T17:42:22.526Z,98862.44
2023-02-17T17:45:10.935Z,98878.69
2023-02-17T17:47:58.330Z,98903.63
2023-02-17T17:50:49.904Z,98888.66
2023-02-17T17:53:37.562Z,98878.16
2023-02-17T17:56:28.352Z,98886.16
2023-02-17T17:59:17.170Z,98881.66
2023-02-17T18:02:05.181Z,98882.63
2023-02-17T18:04:53.032Z,98888.81
2023-02-17T18:07:43.212Z,98887.28
2023-02-17T18:10:32.261Z,98903.25
2023-02-17T18:13:20.141Z,98907.88
2023-02-17T18:16:09.693Z,98900.88
2023-02-17T18:19:00.960Z,98909.81
2023-02-17T18:21:48.580Z,98911.81
2023-02-17T18:24:35.934Z,98907.47
2023-02-17T18:27:23.790Z,98901.16
2023-02-17T18:30:14.394Z,98904.78
2023-02-17T18:33:03.820Z,98914.63
2023-02-17T18:35:51.868Z,98913.91
2023-02-17T18:38:40.177Z,98910.41
2023-02-17T18:41:31.592Z,98904.25
2023-02-17T18:44:19.282Z,98903.41
2023-02-17T18:47:07.026Z,98896.44
2023-02-17T18:49:55.871Z,98910.53
2023-02-17T18:52:45.131Z,98910.69
2023-02-17T18:55:32.778Z,98925.97
2023-02-17T18:58:21.077Z,98929.63
2023-02-17T19:01:16.211Z,98941.25
2023-02-17T19:04:04.914Z,98929.78
2023-02-17T19:06:53.887Z,98927.25
2023-02-17T19:09:43.561Z,98915.91
2023-02-17T19:12:31.030Z,98925.56
2023-02-17T19:15:20.975Z,98929.22
2023-02-17T19:18:08.648Z,98920.53
2023-02-17T19:20:56.139Z,98920.81
2023-02-17T19:23:45.907Z,98933.44
2023-02-17T19:26:34.146Z,98926.13
2023-02-17T19:29:22.915Z,98928.78
2023-02-17T19:32:10.896Z,98918.88
2023-02-17T19:34:58.402Z,98914.53
2023-02-17T19:37:45.981Z,98908.22
2023-02-17T19:40:36.270Z,98921.09
2023-02-17T19:43:24.044Z,98916.78
2023-02-17T19:46:14.200Z,98919.44
2023-02-17T19:49:02.050Z,98906.00
2023-02-17T19:51:50.025Z,98917.47
2023-02-17T19:54:38.234Z,98926.41
2023-02-17T19:57:27.487Z,98910.47
2023-02-17T20:00:16.244Z,98914.97
2023-02-17T20:03:03.738Z,98918.44
2023-02-17T20:05:51.518Z,98919.44
2023-02-17T20:08:39.358Z,98931.59
2023-02-17T20:11:28.162Z,98930.06
2023-02-17T20:14:17.568Z,98921.56
2023-02-17T20:17:05.471Z,98927.56
2023-02-17T20:19:53.116Z,98926.41
2023-02-17T20:22:40.708Z,98941.00
2023-02-17T20:25:28.317Z,98939.03
2023-02-17T20:28:15.910Z,98940.19
2023-02-17T20:31:06.691Z,98944.50
2023-02-17T20:33:54.762Z,98945.34
2023-02-17T20:36:42.655Z,98945.50
2023-02-17T20:39:30.299Z,98938.91
2023-02-17T20:42:17.835Z,98933.72
2023-02-17T20:45:05.749Z,98937.53
2023-02-17T20:47:54.758Z,98940.19
2023-02-17T20:50:43.825Z,98940.31
2023-02-17T20:53:31.398Z,98942.00
2023-02-17T20:56:22.773Z,98946.88
2023-02-17T20:59:13.249Z,98954.03
2023-02-17T21:02:00.953Z,98955.56
2023-02-17T21:04:49.802Z,98939.75
2023-02-17T21:07:37.793Z,98960.88
2023-02-17T21:10:28.026Z,98951.91
2023-02-17T21:13:15.624Z,98962.56
2023-02-17T21:16:03.282Z,98969.59
2023-02-17T21:18:51.064Z,98966.22
2023-02-17T21:21:41.037Z,98963.13
2023-02-17T21:24:28.592Z,98961.75
2023-02-17T21:27:16.182Z,98968.16
2023-02-17T21:30:04.229Z,98963.13
2023-02-17T21:32:51.682Z,98967.34
2023-02-17T21:35:39.114Z,98977.28
2023-02-17T21:38:27.905Z,98969.28
2023-02-17T21:41:19.933Z,98964.81
2023-02-17T21:44:25.378Z,98963.69
2023-02-17T21:47:12.960Z,98970.97
2023-02-17T21:50:00.637Z,98972.09
2023-02-17T21:52:48.083Z,98969.44
2023-02-17T21:55:36.834Z,98974.88
2023-02-17T21:58:24.298Z,98976.56
2023-02-17T22:01:11.741Z,98967.75
2023-02-17T22:03:59.393Z,98976.56
2023-02-17T22:06:47.292Z,98988.06
2023-02-17T22:09:34.799Z,98986.38
2023-02-17T22:12:23.467Z,98974.03
2023-02-17T22:15:11.991Z,98983.00
2023-02-17T22:17:59.851Z,98983.16
2023-02-17T22:20:47.320Z,98993.66
2023-02-17T22:23:35.122Z,98987.78
2023-02-17T22:26:25.561Z,98996.59
2023-02-17T22:29:14.663Z,98994.22
2023-02-17T22:32:02.733Z,98991.56
2023-02-17T22:34:50.600Z,98999.38
2023-02-17T22:37:38.757Z,98995.91
2023-02-17T22:40:27.011Z,98998.72
2023-02-17T22:43:14.726Z,98991.56
2023-02-17T22:46:04.034Z,98997.84
2023-02-17T22:48:53.130Z,98983.56
2023-02-17T22:51:41.654Z,98976.88
2023-02-17T22:54:29.139Z,98990.88
2023-02-17T22:57:16.635Z,98984.84
2023-02-17T23:00:04.153Z,98990.16
2023-02-17T23:02:52.935Z,98994.47
2023-02-17T23:05:42.212Z,98994.75
2023-02-17T23:08:30.438Z,99013.25
2023-02-17T23:11:42.429Z,99018.56
2023-02-17T23:14:34.810Z,99014.22
2023-02-17T23:17:22.130Z,99016.75
2023-02-17T23:20:12.437Z,99015.75
2023-02-17T23:23:00.661Z,99008.91
2023-02-17T23:25:51.958Z,99012.41
2023-02-17T23:28:39.649Z,98999.25
2023-02-17T23:31:27.348Z,99005.41
2023-02-17T23:34:16.715Z,99001.34
2023-02-17T23:37:05.647Z,99013.66
2023-02-17T23:39:52.885Z,99000.34
2023-02-17T23:42:40.308Z,99010.19
2023-02-17T23:45:27.736Z,98995.88
2023-02-17T23:48:15.336Z,99000.34
2023-02-17T23:51:05.826Z,98989.72
2023-02-17T23:53:54.923Z,98988.91
2023-02-17T23:56:43.196Z,98997.84
2023-02-17T23:59:30.920Z,98993.66
